createdAt,value
2017-12-06T00:37:14.640Z,1022.67
2017-12-06T00:38:28.434Z,1022.75
2017-12-06T00:39:42.001Z,1022.71
2017-12-06T00:42:41.038Z,1022.74
2017-12-06T00:43:54.767Z,1022.71
2017-12-06T00:45:08.534Z,1022.71
2017-12-06T00:46:22.771Z,1022.68
2017-12-06T00:47:36.978Z,1022.63
2017-12-06T00:48:51.226Z,1022.65
2017-12-06T00:50:04.887Z,1022.61
2017-12-06T00:51:19.076Z,1022.57
2017-12-06T00:52:32.962Z,1022.55
2017-12-06T00:53:47.047Z,1022.52
2017-12-06T00:55:00.869Z,1022.55
2017-12-06T00:56:14.930Z,1022.52
2017-12-06T00:57:28.959Z,1022.54
2017-12-06T00:58:42.594Z,1022.51
2017-12-06T00:59:56.284Z,1022.55
2017-12-06T01:01:10.214Z,1022.57
2017-12-06T01:02:24.024Z,1022.58
2017-12-06T01:03:38.007Z,1022.57
2017-12-06T01:04:51.866Z,1022.58
2017-12-06T01:06:05.765Z,1022.59
2017-12-06T01:07:20.692Z,1022.57
2017-12-06T01:08:34.510Z,1022.5
2017-12-06T01:09:48.106Z,1022.51
2017-12-06T01:11:01.734Z,1022.46
2017-12-06T01:12:15.384Z,1022.51
2017-12-06T01:13:29.791Z,1022.5
2017-12-06T01:14:43.683Z,1022.53
2017-12-06T01:15:57.506Z,1022.52
2017-12-06T01:17:11.177Z,1022.55
2017-12-06T01:18:24.968Z,1022.51
2017-12-06T01:19:40.383Z,1022.53
2017-12-06T01:20:54.341Z,1022.57
2017-12-06T01:22:08.500Z,1022.53
2017-12-06T01:23:22.208Z,1022.5
2017-12-06T01:24:36.462Z,1022.47
2017-12-06T01:25:50.382Z,1022.49
2017-12-06T01:27:03.988Z,1022.49
2017-12-06T01:28:17.878Z,1022.51
2017-12-06T01:29:32.095Z,1022.5
2017-12-06T01:30:45.733Z,1022.52
2017-12-06T01:31:59.980Z,1022.46
2017-12-06T01:33:13.621Z,1022.42
2017-12-06T01:34:27.519Z,1022.45
2017-12-06T01:35:41.044Z,1022.42
2017-12-06T01:36:54.560Z,1022.41
2017-12-06T01:38:08.454Z,1022.43
2017-12-06T01:39:22.022Z,1022.5
2017-12-06T01:40:35.789Z,1022.49
2017-12-06T01:41:49.715Z,1022.51
2017-12-06T01:43:03.346Z,1022.46
2017-12-06T01:44:17.242Z,1022.49
2017-12-06T01:45:46.747Z,1022.5
2017-12-06T01:47:00.359Z,1022.46
2017-12-06T01:48:14.402Z,1022.46
2017-12-06T01:49:27.913Z,1022.41
2017-12-06T01:50:42.079Z,1022.4
2017-12-06T01:51:55.977Z,1022.33
2017-12-06T01:53:09.648Z,1022.41
2017-12-06T01:54:23.176Z,1022.39
2017-12-06T01:55:37.288Z,1022.39
2017-12-06T01:56:51.126Z,1022.29
2017-12-06T01:58:05.070Z,1022.36
2017-12-06T01:59:18.759Z,1022.35
2017-12-06T02:00:33.441Z,1022.29
2017-12-06T02:01:48.397Z,1022.28
2017-12-06T02:03:02.617Z,1022.3
2017-12-06T02:04:16.447Z,1022.31
2017-12-06T02:07:00.663Z,1022.29
2017-12-06T02:08:16.920Z,1022.32
2017-12-06T02:09:30.726Z,1022.27
2017-12-06T02:10:44.766Z,1022.33
2017-12-06T02:11:58.756Z,1022.32
2017-12-06T02:13:12.378Z,1022.33
2017-12-06T02:14:26.968Z,1022.29
2017-12-06T02:15:45.513Z,1022.28
2017-12-06T02:16:59.236Z,1022.29
2017-12-06T02:18:13.200Z,1022.29
2017-12-06T02:19:29.249Z,1022.35
2017-12-06T02:20:46.564Z,1022.27
2017-12-06T02:22:02.173Z,1022.2
2017-12-06T02:23:17.339Z,1022.22
2017-12-06T02:24:32.894Z,1022.18
2017-12-06T02:25:46.767Z,1022.2
2017-12-06T02:27:00.823Z,1022.19
2017-12-06T02:28:14.385Z,1022.19
2017-12-06T02:29:28.378Z,1022.19
2017-12-06T02:30:42.332Z,1022.15
2017-12-06T02:31:56.022Z,1022.13
2017-12-06T02:33:10.357Z,1022.17
2017-12-06T02:34:24.079Z,1022.23
2017-12-06T02:35:37.857Z,1022.23
2017-12-06T02:36:51.446Z,1022.19
2017-12-06T02:38:05.180Z,1022.15
2017-12-06T02:39:19.071Z,1022.11
2017-12-06T02:40:32.955Z,1022.06
2017-12-06T02:41:46.639Z,1022.11
2017-12-06T02:43:00.246Z,1022.09
2017-12-06T02:44:13.972Z,1022.15
2017-12-06T02:45:28.625Z,1022.15
2017-12-06T02:46:43.480Z,1022.17
2017-12-06T02:47:57.066Z,1022.14
2017-12-06T02:49:10.928Z,1022.17
2017-12-06T02:50:24.569Z,1022.1
2017-12-06T02:51:39.137Z,1022.11
2017-12-06T02:52:52.833Z,1022.08
2017-12-06T02:54:06.460Z,1022.09
2017-12-06T02:55:20.025Z,1022.02
2017-12-06T02:56:34.277Z,1022.04
2017-12-06T02:57:48.599Z,1022
2017-12-06T02:59:02.297Z,1021.97
2017-12-06T03:00:16.063Z,1021.96
2017-12-06T03:01:30.104Z,1022
2017-12-06T03:02:43.688Z,1021.99
2017-12-06T03:03:57.979Z,1021.96
2017-12-06T03:05:11.587Z,1021.94
2017-12-06T03:06:25.489Z,1021.9
2017-12-06T03:07:39.192Z,1021.88
2017-12-06T03:08:52.713Z,1021.85
2017-12-06T03:10:06.846Z,1021.8
2017-12-06T03:11:20.388Z,1021.82
2017-12-06T03:12:34.102Z,1021.78
2017-12-06T03:13:47.727Z,1021.8
2017-12-06T03:15:01.251Z,1021.8
2017-12-06T03:16:15.080Z,1021.71
2017-12-06T03:17:28.730Z,1021.69
2017-12-06T03:18:42.450Z,1021.7
2017-12-06T03:19:56.023Z,1021.69
2017-12-06T03:21:09.654Z,1021.67
2017-12-06T03:22:23.677Z,1021.69
2017-12-06T03:23:37.787Z,1021.62
2017-12-06T03:24:51.580Z,1021.71
2017-12-06T03:26:05.321Z,1021.73
2017-12-06T03:27:18.824Z,1021.74
2017-12-06T03:28:32.822Z,1021.72
2017-12-06T03:29:46.750Z,1021.71
2017-12-06T03:31:00.560Z,1021.73
2017-12-06T03:32:14.367Z,1021.67
2017-12-06T03:33:27.986Z,1021.67
2017-12-06T03:34:42.795Z,1021.63
2017-12-06T03:35:56.350Z,1021.68
2017-12-06T03:37:10.111Z,1021.63
2017-12-06T03:38:24.058Z,1021.63
2017-12-06T03:39:37.592Z,1021.7
2017-12-06T03:40:51.745Z,1021.66
2017-12-06T03:42:05.301Z,1021.68
2017-12-06T03:43:19.051Z,1021.68
2017-12-06T03:44:32.677Z,1021.7
2017-12-06T03:45:46.467Z,1021.68
2017-12-06T03:47:00.324Z,1021.67
2017-12-06T03:48:13.909Z,1021.73
2017-12-06T03:49:27.698Z,1021.71
2017-12-06T03:50:41.625Z,1021.7
2017-12-06T03:51:55.268Z,1021.69
2017-12-06T03:53:09.183Z,1021.7
2017-12-06T03:54:23.186Z,1021.73
2017-12-06T03:55:38.124Z,1021.7
2017-12-06T03:56:51.742Z,1021.7
2017-12-06T03:58:05.418Z,1021.6
2017-12-06T03:59:19.674Z,1021.61
2017-12-06T04:00:33.404Z,1021.62
2017-12-06T04:01:47.139Z,1021.59
2017-12-06T04:03:00.681Z,1021.54
2017-12-06T04:04:14.293Z,1021.54
2017-12-06T04:05:28.819Z,1021.55
2017-12-06T04:06:42.770Z,1021.54
2017-12-06T04:07:56.345Z,1021.51
2017-12-06T04:09:10.127Z,1021.56
2017-12-06T04:10:24.283Z,1021.56
2017-12-06T04:11:38.156Z,1021.59
2017-12-06T04:12:51.722Z,1021.59
2017-12-06T04:14:05.294Z,1021.54
2017-12-06T04:15:18.996Z,1021.55
2017-12-06T04:16:32.932Z,1021.53
2017-12-06T04:17:46.984Z,1021.59
2017-12-06T04:19:00.545Z,1021.53
2017-12-06T04:20:14.136Z,1021.53
2017-12-06T04:21:28.179Z,1021.56
2017-12-06T04:22:41.858Z,1021.51
2017-12-06T04:23:55.915Z,1021.55
2017-12-06T04:25:09.459Z,1021.54
2017-12-06T04:26:23.192Z,1021.55
2017-12-06T04:27:36.765Z,1021.56
2017-12-06T04:28:50.298Z,1021.53
2017-12-06T04:30:04.682Z,1021.51
2017-12-06T04:31:18.769Z,1021.55
2017-12-06T04:32:32.300Z,1021.51
2017-12-06T04:33:46.687Z,1021.5
2017-12-06T04:35:00.363Z,1021.56
2017-12-06T04:36:14.307Z,1021.54
2017-12-06T04:37:28.268Z,1021.51
2017-12-06T04:38:42.016Z,1021.57
2017-12-06T04:39:56.508Z,1021.6
2017-12-06T04:41:10.344Z,1021.57
2017-12-06T04:42:24.459Z,1021.62
2017-12-06T04:43:38.038Z,1021.58
2017-12-06T04:44:52.015Z,1021.58
2017-12-06T04:46:05.682Z,1021.6
2017-12-06T04:47:19.436Z,1021.62
2017-12-06T04:48:33.615Z,1021.67
2017-12-06T04:49:47.140Z,1021.64
2017-12-06T04:51:00.704Z,1021.67
2017-12-06T04:52:14.777Z,1021.68
2017-12-06T04:53:28.496Z,1021.66
2017-12-06T04:54:49.117Z,1021.66
2017-12-06T04:56:02.900Z,1021.58
2017-12-06T04:57:16.986Z,1021.61
2017-12-06T04:58:30.624Z,1021.57
2017-12-06T04:59:44.491Z,1021.55
2017-12-06T05:00:58.445Z,1021.58
2017-12-06T05:02:12.061Z,1021.59
2017-12-06T05:03:26.369Z,1021.56
2017-12-06T05:04:39.907Z,1021.54
2017-12-06T05:05:54.457Z,1021.5
2017-12-06T05:07:08.385Z,1021.52
2017-12-06T05:08:22.794Z,1021.5
2017-12-06T05:09:36.886Z,1021.51
2017-12-06T05:10:50.513Z,1021.48
2017-12-06T05:12:04.129Z,1021.46
2017-12-06T05:13:18.177Z,1021.45
2017-12-06T05:14:32.817Z,1021.42
2017-12-06T05:15:46.513Z,1021.4
2017-12-06T05:17:00.287Z,1021.38
2017-12-06T05:18:13.825Z,1021.36
2017-12-06T05:19:27.901Z,1021.3
2017-12-06T05:20:41.439Z,1021.33
2017-12-06T05:21:54.960Z,1021.28
2017-12-06T05:23:09.114Z,1021.29
2017-12-06T05:24:22.953Z,1021.28
2017-12-06T05:25:37.022Z,1021.3
2017-12-06T05:26:50.584Z,1021.27
2017-12-06T05:28:04.274Z,1021.27
2017-12-06T05:29:17.896Z,1021.28
2017-12-06T05:30:31.561Z,1021.25
2017-12-06T05:31:45.366Z,1021.26
2017-12-06T05:32:58.886Z,1021.23
2017-12-06T05:34:12.769Z,1021.25
2017-12-06T05:35:26.280Z,1021.26
2017-12-06T05:36:40.006Z,1021.26
2017-12-06T05:37:53.698Z,1021.26
2017-12-06T05:39:07.291Z,1021.28
2017-12-06T05:40:21.273Z,1021.27
2017-12-06T05:41:34.989Z,1021.26
2017-12-06T05:42:48.830Z,1021.26
2017-12-06T05:44:02.835Z,1021.14
2017-12-06T05:45:16.623Z,1021.17
2017-12-06T05:46:30.231Z,1021.15
2017-12-06T05:47:43.989Z,1021.15
2017-12-06T05:48:57.519Z,1021.09
2017-12-06T05:50:12.209Z,1021.13
2017-12-06T05:51:25.769Z,1021.13
2017-12-06T05:52:39.648Z,1021.08
2017-12-06T05:53:53.269Z,1021.08
2017-12-06T05:55:06.985Z,1021.03
2017-12-06T05:56:21.144Z,1021.03
2017-12-06T05:57:35.055Z,1021.03
2017-12-06T05:58:48.640Z,1021.04
2017-12-06T06:00:02.161Z,1021.07
2017-12-06T06:01:15.889Z,1021.04
2017-12-06T06:02:29.789Z,1021.1
2017-12-06T06:03:43.345Z,1021.05
2017-12-06T06:04:56.917Z,1021.04
2017-12-06T06:07:39.397Z,1021.06
2017-12-06T06:08:53.013Z,1021.07
2017-12-06T06:10:06.831Z,1021.04
2017-12-06T06:11:20.619Z,1021.02
2017-12-06T06:12:34.212Z,1021.04
2017-12-06T06:13:48.216Z,1021.03
2017-12-06T06:15:02.237Z,1021.04
2017-12-06T06:16:15.923Z,1021.01
2017-12-06T06:17:50.063Z,1021.01
2017-12-06T06:19:04.239Z,1021
2017-12-06T06:20:17.894Z,1021.04
2017-12-06T06:21:32.477Z,1021.06
2017-12-06T06:22:47.239Z,1021.04
2017-12-06T06:24:01.935Z,1021.05
2017-12-06T06:25:16.659Z,1021.04
2017-12-06T06:26:30.496Z,1021.05
2017-12-06T06:27:45.202Z,1021.04
2017-12-06T06:28:59.114Z,1021.1
2017-12-06T06:30:13.194Z,1021.04
2017-12-06T06:31:27.141Z,1021.05
2017-12-06T06:34:09.435Z,1021.03
2017-12-06T06:35:23.533Z,1021.04
2017-12-06T06:36:37.695Z,1021.01
2017-12-06T06:37:51.765Z,1020.99
2017-12-06T06:39:05.649Z,1021.04
2017-12-06T06:40:19.547Z,1021.01
2017-12-06T06:41:33.134Z,1021.09
2017-12-06T06:42:47.227Z,1021.1
2017-12-06T06:44:00.929Z,1021.08
2017-12-06T06:45:14.490Z,1021.03
2017-12-06T06:46:28.395Z,1021.04
2017-12-06T06:47:42.425Z,1021.01
2017-12-06T06:48:57.019Z,1020.99
2017-12-06T06:50:10.925Z,1021
2017-12-06T06:51:24.493Z,1021.01
2017-12-06T06:52:38.066Z,1021.05
2017-12-06T06:53:51.832Z,1021
2017-12-06T06:55:05.669Z,1020.99
2017-12-06T06:56:19.270Z,1021
2017-12-06T06:57:33.806Z,1020.99
2017-12-06T06:58:47.885Z,1020.99
2017-12-06T07:00:01.825Z,1021
2017-12-06T07:01:16.271Z,1021.01
2017-12-06T07:02:29.906Z,1021
